sensor_id;sensor_type;location;lat;lon;timestamp;temperature;humidity
18260;DHT22;9256;52.236;5.712;2023-04-01T00:01:06;10.00;99.90
18260;DHT22;9256;52.236;5.712;2023-04-01T00:03:34;9.90;99.90
18260;DHT22;9256;52.236;5.712;2023-04-01T00:06:01;9.80;99.90
18260;DHT22;9256;52.236;5.712;2023-04-01T00:08:29;9.90;99.90
18260;DHT22;9256;52.236;5.712;2023-04-01T00:10:56;9.90;99.90
18260;DHT22;9256;52.236;5.712;2023-04-01T00:13:25;9.90;99.90
18260;DHT22;9256;52.236;5.712;2023-04-01T00:15:53;9.90;99.90
18260;DHT22;9256;52.236;5.712;2023-04-01T00:18:20;10.00;99.90
18260;DHT22;9256;52.236;5.712;2023-04-01T00:20:48;10.00;99.90
18260;DHT22;9256;52.236;5.712;2023-04-01T00:23:16;9.90;99.90
18260;DHT22;9256;52.236;5.712;2023-04-01T00:25:44;10.00;99.90
18260;DHT22;9256;52.236;5.712;2023-04-01T00:28:13;10.00;99.90
18260;DHT22;9256;52.236;5.712;2023-04-01T00:30:41;10.00;99.90
18260;DHT22;9256;52.236;5.712;2023-04-01T00:33:08;10.00;99.90
18260;DHT22;9256;52.236;5.712;2023-04-01T00:35:36;10.00;99.90
18260;DHT22;9256;52.236;5.712;2023-04-01T00:38:03;10.00;99.90
18260;DHT22;9256;52.236;5.712;2023-04-01T00:40:32;10.00;99.90
18260;DHT22;9256;52.236;5.712;2023-04-01T00:42:59;10.00;99.90
18260;DHT22;9256;52.236;5.712;2023-04-01T00:45:32;10.00;99.90
18260;DHT22;9256;52.236;5.712;2023-04-01T00:48:06;10.00;99.90
18260;DHT22;9256;52.236;5.712;2023-04-01T00:50:34;10.00;99.90
18260;DHT22;9256;52.236;5.712;2023-04-01T00:53:03;10.00;99.90
18260;DHT22;9256;52.236;5.712;2023-04-01T00:55:33;10.00;99.90
18260;DHT22;9256;52.236;5.712;2023-04-01T00:58:03;10.00;99.90
18260;DHT22;9256;52.236;5.712;2023-04-01T01:00:30;10.00;99.90
18260;DHT22;9256;52.236;5.712;2023-04-01T01:02:57;10.00;99.90
18260;DHT22;9256;52.236;5.712;2023-04-01T01:05:34;10.00;99.90
18260;DHT22;9256;52.236;5.712;2023-04-01T01:08:08;10.00;99.90
18260;DHT22;9256;52.236;5.712;2023-04-01T01:10:42;10.00;99.90
18260;DHT22;9256;52.236;5.712;2023-04-01T01:13:17;10.00;99.90
18260;DHT22;9256;52.236;5.712;2023-04-01T01:15:55;10.00;99.90
18260;DHT22;9256;52.236;5.712;2023-04-01T01:18:29;10.00;99.90
18260;DHT22;9256;52.236;5.712;2023-04-01T01:21:28;10.00;99.90
18260;DHT22;9256;52.236;5.712;2023-04-01T01:24:29;10.00;99.90
18260;DHT22;9256;52.236;5.712;2023-04-01T01:27:06;9.90;99.90
18260;DHT22;9256;52.236;5.712;2023-04-01T01:32:43;9.90;99.90
18260;DHT22;9256;52.236;5.712;2023-04-01T01:35:21;9.90;99.90
18260;DHT22;9256;52.236;5.712;2023-04-01T01:37:51;9.90;99.90
18260;DHT22;9256;52.236;5.712;2023-04-01T01:40:20;9.90;99.90
18260;DHT22;9256;52.236;5.712;2023-04-01T01:42:51;9.90;99.90
18260;DHT22;9256;52.236;5.712;2023-04-01T01:45:23;9.90;99.90
18260;DHT22;9256;52.236;5.712;2023-04-01T01:47:51;9.90;99.90
18260;DHT22;9256;52.236;5.712;2023-04-01T01:50:21;9.90;99.90
18260;DHT22;9256;52.236;5.712;2023-04-01T01:52:49;9.90;99.90
18260;DHT22;9256;52.236;5.712;2023-04-01T01:55:26;9.90;99.90
18260;DHT22;9256;52.236;5.712;2023-04-01T01:57:55;10.00;99.90
18260;DHT22;9256;52.236;5.712;2023-04-01T02:00:24;9.90;99.90
18260;DHT22;9256;52.236;5.712;2023-04-01T02:02:52;10.00;99.90
18260;DHT22;9256;52.236;5.712;2023-04-01T02:05:24;9.90;99.90
18260;DHT22;9256;52.236;5.712;2023-04-01T02:07:57;9.90;99.90
18260;DHT22;9256;52.236;5.712;2023-04-01T02:10:29;9.80;99.90
18260;DHT22;9256;52.236;5.712;2023-04-01T02:13:01;9.80;99.90
18260;DHT22;9256;52.236;5.712;2023-04-01T02:15:33;9.90;99.90
18260;DHT22;9256;52.236;5.712;2023-04-01T02:18:04;9.90;99.90
18260;DHT22;9256;52.236;5.712;2023-04-01T02:20:35;9.90;99.90
18260;DHT22;9256;52.236;5.712;2023-04-01T02:23:03;9.80;99.90
18260;DHT22;9256;52.236;5.712;2023-04-01T02:25:35;9.80;99.90
18260;DHT22;9256;52.236;5.712;2023-04-01T02:28:04;9.80;99.90
18260;DHT22;9256;52.236;5.712;2023-04-01T02:30:34;9.80;99.90
18260;DHT22;9256;52.236;5.712;2023-04-01T02:33:03;9.80;99.90
18260;DHT22;9256;52.236;5.712;2023-04-01T02:35:30;9.80;99.90
18260;DHT22;9256;52.236;5.712;2023-04-01T02:38:01;9.70;99.90
18260;DHT22;9256;52.236;5.712;2023-04-01T02:40:28;9.60;99.90
18260;DHT22;9256;52.236;5.712;2023-04-01T02:42:55;9.60;99.90
18260;DHT22;9256;52.236;5.712;2023-04-01T02:45:22;9.60;99.90
18260;DHT22;9256;52.236;5.712;2023-04-01T02:47:48;9.60;99.90
18260;DHT22;9256;52.236;5.712;2023-04-01T02:50:16;9.70;99.90
18260;DHT22;9256;52.236;5.712;2023-04-01T02:52:43;9.60;99.90
18260;DHT22;9256;52.236;5.712;2023-04-01T02:55:11;9.70;99.90
18260;DHT22;9256;52.236;5.712;2023-04-01T02:57:38;9.70;99.90
18260;DHT22;9256;52.236;5.712;2023-04-01T03:00:06;9.60;99.90
18260;DHT22;9256;52.236;5.712;2023-04-01T03:02:37;9.60;99.90
18260;DHT22;9256;52.236;5.712;2023-04-01T03:05:05;9.60;99.90
18260;DHT22;9256;52.236;5.712;2023-04-01T03:07:32;9.60;99.90
18260;DHT22;9256;52.236;5.712;2023-04-01T03:09:59;9.60;99.90
18260;DHT22;9256;52.236;5.712;2023-04-01T03:12:28;9.50;99.90
18260;DHT22;9256;52.236;5.712;2023-04-01T03:14:55;9.60;99.90
18260;DHT22;9256;52.236;5.712;2023-04-01T03:17:21;9.50;99.90
18260;DHT22;9256;52.236;5.712;2023-04-01T03:19:48;9.50;99.90
18260;DHT22;9256;52.236;5.712;2023-04-01T03:22:15;9.60;99.90
18260;DHT22;9256;52.236;5.712;2023-04-01T03:24:44;9.60;99.90
18260;DHT22;9256;52.236;5.712;2023-04-01T03:27:11;9.50;99.90
18260;DHT22;9256;52.236;5.712;2023-04-01T03:29:39;9.50;99.90
18260;DHT22;9256;52.236;5.712;2023-04-01T03:32:06;9.50;99.90
18260;DHT22;9256;52.236;5.712;2023-04-01T03:34:33;9.50;99.90
18260;DHT22;9256;52.236;5.712;2023-04-01T03:37:00;9.50;99.90
18260;DHT22;9256;52.236;5.712;2023-04-01T03:39:27;9.50;99.90
18260;DHT22;9256;52.236;5.712;2023-04-01T03:41:54;9.50;99.90
18260;DHT22;9256;52.236;5.712;2023-04-01T03:44:21;9.50;99.90
18260;DHT22;9256;52.236;5.712;2023-04-01T03:46:49;9.40;99.90
18260;DHT22;9256;52.236;5.712;2023-04-01T03:49:16;9.50;99.90
18260;DHT22;9256;52.236;5.712;2023-04-01T03:51:44;9.50;99.90
18260;DHT22;9256;52.236;5.712;2023-04-01T03:54:11;9.50;99.90
18260;DHT22;9256;52.236;5.712;2023-04-01T03:56:38;9.50;99.90
18260;DHT22;9256;52.236;5.712;2023-04-01T03:59:06;9.50;99.90
18260;DHT22;9256;52.236;5.712;2023-04-01T04:01:34;9.40;99.90
18260;DHT22;9256;52.236;5.712;2023-04-01T04:04:02;9.50;99.90
18260;DHT22;9256;52.236;5.712;2023-04-01T04:06:30;9.40;99.90
18260;DHT22;9256;52.236;5.712;2023-04-01T04:08:57;9.40;99.90
18260;DHT22;9256;52.236;5.712;2023-04-01T04:11:24;9.50;99.90
18260;DHT22;9256;52.236;5.712;2023-04-01T04:13:51;9.40;99.90
18260;DHT22;9256;52.236;5.712;2023-04-01T04:16:19;9.40;99.90
18260;DHT22;9256;52.236;5.712;2023-04-01T04:18:46;9.30;99.90
18260;DHT22;9256;52.236;5.712;2023-04-01T04:21:15;9.30;99.90
18260;DHT22;9256;52.236;5.712;2023-04-01T04:23:42;9.30;99.90
18260;DHT22;9256;52.236;5.712;2023-04-01T04:26:11;9.30;99.90
18260;DHT22;9256;52.236;5.712;2023-04-01T04:28:38;9.30;99.90
18260;DHT22;9256;52.236;5.712;2023-04-01T04:31:06;9.20;99.90
18260;DHT22;9256;52.236;5.712;2023-04-01T04:33:33;9.30;99.90
18260;DHT22;9256;52.236;5.712;2023-04-01T04:36:01;9.30;99.90
18260;DHT22;9256;52.236;5.712;2023-04-01T04:38:30;9.30;99.90
18260;DHT22;9256;52.236;5.712;2023-04-01T04:40:57;9.30;99.90
18260;DHT22;9256;52.236;5.712;2023-04-01T04:43:24;9.30;99.90
18260;DHT22;9256;52.236;5.712;2023-04-01T04:45:51;9.30;99.90
18260;DHT22;9256;52.236;5.712;2023-04-01T04:48:18;9.30;99.90
18260;DHT22;9256;52.236;5.712;2023-04-01T04:50:46;9.30;99.90
18260;DHT22;9256;52.236;5.712;2023-04-01T04:53:15;9.20;99.90
18260;DHT22;9256;52.236;5.712;2023-04-01T04:55:47;9.20;99.90
18260;DHT22;9256;52.236;5.712;2023-04-01T04:58:14;9.20;99.90
18260;DHT22;9256;52.236;5.712;2023-04-01T05:00:41;9.20;99.90
18260;DHT22;9256;52.236;5.712;2023-04-01T05:03:09;9.20;99.90
18260;DHT22;9256;52.236;5.712;2023-04-01T05:05:36;9.20;99.90
18260;DHT22;9256;52.236;5.712;2023-04-01T05:08:03;9.20;99.90
18260;DHT22;9256;52.236;5.712;2023-04-01T05:10:30;9.20;99.90
18260;DHT22;9256;52.236;5.712;2023-04-01T05:12:58;9.20;99.90
18260;DHT22;9256;52.236;5.712;2023-04-01T05:15:25;9.20;99.90
18260;DHT22;9256;52.236;5.712;2023-04-01T05:17:52;9.20;99.90
18260;DHT22;9256;52.236;5.712;2023-04-01T05:20:19;9.20;99.90
18260;DHT22;9256;52.236;5.712;2023-04-01T05:22:46;9.20;99.90
18260;DHT22;9256;52.236;5.712;2023-04-01T05:25:13;9.20;99.90
18260;DHT22;9256;52.236;5.712;2023-04-01T05:27:40;9.20;99.90
18260;DHT22;9256;52.236;5.712;2023-04-01T05:30:09;9.20;99.90
18260;DHT22;9256;52.236;5.712;2023-04-01T05:32:36;9.20;99.90
18260;DHT22;9256;52.236;5.712;2023-04-01T05:35:04;9.20;99.90
18260;DHT22;9256;52.236;5.712;2023-04-01T05:37:33;9.20;99.90
18260;DHT22;9256;52.236;5.712;2023-04-01T05:40:00;9.20;99.90
18260;DHT22;9256;52.236;5.712;2023-04-01T05:42:27;9.30;99.90
18260;DHT22;9256;52.236;5.712;2023-04-01T05:44:54;9.30;99.90
18260;DHT22;9256;52.236;5.712;2023-04-01T05:47:23;9.30;99.90
18260;DHT22;9256;52.236;5.712;2023-04-01T05:49:49;9.20;99.90
18260;DHT22;9256;52.236;5.712;2023-04-01T05:52:16;9.20;99.90
18260;DHT22;9256;52.236;5.712;2023-04-01T05:54:43;9.30;99.90
18260;DHT22;9256;52.236;5.712;2023-04-01T05:57:10;9.20;99.90
18260;DHT22;9256;52.236;5.712;2023-04-01T05:59:37;9.30;99.90
18260;DHT22;9256;52.236;5.712;2023-04-01T06:02:04;9.30;99.90
18260;DHT22;9256;52.236;5.712;2023-04-01T06:04:37;9.40;99.90
18260;DHT22;9256;52.236;5.712;2023-04-01T06:07:12;9.30;99.90
18260;DHT22;9256;52.236;5.712;2023-04-01T06:09:40;9.30;99.90
18260;DHT22;9256;52.236;5.712;2023-04-01T06:12:25;9.30;99.90
18260;DHT22;9256;52.236;5.712;2023-04-01T06:15:03;9.40;99.90
18260;DHT22;9256;52.236;5.712;2023-04-01T06:17:45;9.40;99.90
18260;DHT22;9256;52.236;5.712;2023-04-01T06:20:24;9.40;99.90
18260;DHT22;9256;52.236;5.712;2023-04-01T06:23:10;9.40;99.90
18260;DHT22;9256;52.236;5.712;2023-04-01T06:25:44;9.50;99.90
18260;DHT22;9256;52.236;5.712;2023-04-01T06:31:38;9.50;99.90
18260;DHT22;9256;52.236;5.712;2023-04-01T06:34:27;9.60;99.90
18260;DHT22;9256;52.236;5.712;2023-04-01T06:37:10;9.60;99.90
18260;DHT22;9256;52.236;5.712;2023-04-01T06:39:58;9.50;99.90
18260;DHT22;9256;52.236;5.712;2023-04-01T06:42:47;9.60;99.90
18260;DHT22;9256;52.236;5.712;2023-04-01T06:45:27;9.70;99.90
18260;DHT22;9256;52.236;5.712;2023-04-01T06:48:05;9.80;99.90
18260;DHT22;9256;52.236;5.712;2023-04-01T06:50:39;9.80;99.90
18260;DHT22;9256;52.236;5.712;2023-04-01T06:53:14;9.80;99.90
18260;DHT22;9256;52.236;5.712;2023-04-01T06:55:46;9.80;99.90
18260;DHT22;9256;52.236;5.712;2023-04-01T06:58:18;9.80;99.90
18260;DHT22;9256;52.236;5.712;2023-04-01T07:00:49;10.00;99.90
18260;DHT22;9256;52.236;5.712;2023-04-01T07:03:21;10.00;99.90
18260;DHT22;9256;52.236;5.712;2023-04-01T07:05:49;10.00;99.90
18260;DHT22;9256;52.236;5.712;2023-04-01T07:08:22;10.20;99.90
18260;DHT22;9256;52.236;5.712;2023-04-01T07:10:53;10.20;99.90
18260;DHT22;9256;52.236;5.712;2023-04-01T07:13:26;10.10;99.90
18260;DHT22;9256;52.236;5.712;2023-04-01T07:16:06;10.10;99.90
18260;DHT22;9256;52.236;5.712;2023-04-01T07:18:38;10.20;99.90
18260;DHT22;9256;52.236;5.712;2023-04-01T07:21:13;10.20;99.90
18260;DHT22;9256;52.236;5.712;2023-04-01T07:23:46;10.30;99.90
18260;DHT22;9256;52.236;5.712;2023-04-01T07:26:18;10.30;99.90
18260;DHT22;9256;52.236;5.712;2023-04-01T07:28:46;10.30;99.90
18260;DHT22;9256;52.236;5.712;2023-04-01T07:31:20;10.40;99.90
18260;DHT22;9256;52.236;5.712;2023-04-01T07:33:55;10.40;99.90
18260;DHT22;9256;52.236;5.712;2023-04-01T07:36:31;10.50;99.90
18260;DHT22;9256;52.236;5.712;2023-04-01T07:39:08;10.50;99.90
18260;DHT22;9256;52.236;5.712;2023-04-01T07:41:44;10.50;99.90
18260;DHT22;9256;52.236;5.712;2023-04-01T07:44:21;10.50;99.90
18260;DHT22;9256;52.236;5.712;2023-04-01T07:47:02;10.50;99.90
18260;DHT22;9256;52.236;5.712;2023-04-01T07:49:36;10.40;99.90
18260;DHT22;9256;52.236;5.712;2023-04-01T07:52:14;10.40;99.90
18260;DHT22;9256;52.236;5.712;2023-04-01T07:54:51;10.40;99.90
18260;DHT22;9256;52.236;5.712;2023-04-01T07:57:20;10.30;99.90
18260;DHT22;9256;52.236;5.712;2023-04-01T07:59:57;10.40;99.90
18260;DHT22;9256;52.236;5.712;2023-04-01T08:02:47;10.40;99.90
18260;DHT22;9256;52.236;5.712;2023-04-01T08:05:21;10.50;99.90
18260;DHT22;9256;52.236;5.712;2023-04-01T08:08:00;10.40;99.90
18260;DHT22;9256;52.236;5.712;2023-04-01T08:10:36;10.50;99.90
18260;DHT22;9256;52.236;5.712;2023-04-01T08:13:13;10.50;99.90
18260;DHT22;9256;52.236;5.712;2023-04-01T08:15:51;10.50;99.90
18260;DHT22;9256;52.236;5.712;2023-04-01T08:18:30;10.50;99.90
18260;DHT22;9256;52.236;5.712;2023-04-01T08:21:00;10.50;99.90
18260;DHT22;9256;52.236;5.712;2023-04-01T08:23:30;10.50;99.90
18260;DHT22;9256;52.236;5.712;2023-04-01T08:26:04;10.50;99.90
18260;DHT22;9256;52.236;5.712;2023-04-01T08:28:36;10.50;99.90
18260;DHT22;9256;52.236;5.712;2023-04-01T08:31:06;10.40;99.90
18260;DHT22;9256;52.236;5.712;2023-04-01T08:33:37;10.50;99.90
18260;DHT22;9256;52.236;5.712;2023-04-01T08:36:08;10.50;99.90
18260;DHT22;9256;52.236;5.712;2023-04-01T08:38:41;10.40;99.90
18260;DHT22;9256;52.236;5.712;2023-04-01T08:44:38;10.30;99.90
18260;DHT22;9256;52.236;5.712;2023-04-01T08:47:24;10.40;99.90
18260;DHT22;9256;52.236;5.712;2023-04-01T08:50:26;10.50;99.90
18260;DHT22;9256;52.236;5.712;2023-04-01T08:53:03;10.40;99.90
18260;DHT22;9256;52.236;5.712;2023-04-01T08:55:47;10.50;99.90
18260;DHT22;9256;52.236;5.712;2023-04-01T09:01:25;10.60;99.90
18260;DHT22;9256;52.236;5.712;2023-04-01T09:04:14;10.50;99.90
18260;DHT22;9256;52.236;5.712;2023-04-01T09:06:58;10.60;99.90
18260;DHT22;9256;52.236;5.712;2023-04-01T09:09:56;10.70;99.90
18260;DHT22;9256;52.236;5.712;2023-04-01T09:12:45;10.80;99.90
18260;DHT22;9256;52.236;5.712;2023-04-01T09:15:48;10.80;99.90
18260;DHT22;9256;52.236;5.712;2023-04-01T09:21:34;11.20;99.90
18260;DHT22;9256;52.236;5.712;2023-04-01T09:24:41;11.30;99.90
18260;DHT22;9256;52.236;5.712;2023-04-01T09:27:26;11.40;99.90
18260;DHT22;9256;52.236;5.712;2023-04-01T09:30:19;11.50;99.90
18260;DHT22;9256;52.236;5.712;2023-04-01T09:36:22;11.60;99.90
18260;DHT22;9256;52.236;5.712;2023-04-01T09:38:56;11.70;99.90
18260;DHT22;9256;52.236;5.712;2023-04-01T09:41:29;11.60;99.90
18260;DHT22;9256;52.236;5.712;2023-04-01T09:44:03;11.60;99.90
18260;DHT22;9256;52.236;5.712;2023-04-01T09:46:54;11.50;99.90
18260;DHT22;9256;52.236;5.712;2023-04-01T09:49:35;11.60;99.90
18260;DHT22;9256;52.236;5.712;2023-04-01T09:52:14;11.50;99.90
18260;DHT22;9256;52.236;5.712;2023-04-01T09:55:03;11.60;99.90
18260;DHT22;9256;52.236;5.712;2023-04-01T09:58:02;11.70;99.90
18260;DHT22;9256;52.236;5.712;2023-04-01T10:04:12;11.80;99.90
18260;DHT22;9256;52.236;5.712;2023-04-01T10:10:09;11.80;99.90
18260;DHT22;9256;52.236;5.712;2023-04-01T10:16:08;11.60;99.90
18260;DHT22;9256;52.236;5.712;2023-04-01T10:18:56;11.60;99.90
18260;DHT22;9256;52.236;5.712;2023-04-01T10:21:55;11.60;99.90
18260;DHT22;9256;52.236;5.712;2023-04-01T10:30:54;11.20;99.90
18260;DHT22;9256;52.236;5.712;2023-04-01T10:33:45;11.10;99.90
18260;DHT22;9256;52.236;5.712;2023-04-01T10:36:45;11.10;99.90
18260;DHT22;9256;52.236;5.712;2023-04-01T10:42:32;11.00;99.90
18260;DHT22;9256;52.236;5.712;2023-04-01T10:54:20;10.90;99.90
18260;DHT22;9256;52.236;5.712;2023-04-01T10:56:55;11.00;99.90
18260;DHT22;9256;52.236;5.712;2023-04-01T11:06:17;11.00;99.90
18260;DHT22;9256;52.236;5.712;2023-04-01T11:15:31;11.40;99.90
18260;DHT22;9256;52.236;5.712;2023-04-01T11:18:47;11.40;99.90
18260;DHT22;9256;52.236;5.712;2023-04-01T11:27:30;11.20;99.90
18260;DHT22;9256;52.236;5.712;2023-04-01T11:30:49;11.20;99.90
18260;DHT22;9256;52.236;5.712;2023-04-01T11:33:25;11.00;99.90
18260;DHT22;9256;52.236;5.712;2023-04-01T11:36:07;11.10;99.90
18260;DHT22;9256;52.236;5.712;2023-04-01T11:39:00;11.10;99.90
18260;DHT22;9256;52.236;5.712;2023-04-01T11:41:36;11.10;99.90
18260;DHT22;9256;52.236;5.712;2023-04-01T11:44:16;11.00;99.90
18260;DHT22;9256;52.236;5.712;2023-04-01T11:49:52;11.00;99.90
18260;DHT22;9256;52.236;5.712;2023-04-01T11:52:37;11.10;99.90
18260;DHT22;9256;52.236;5.712;2023-04-01T11:55:19;10.90;99.90
18260;DHT22;9256;52.236;5.712;2023-04-01T12:04:22;10.90;99.90
18260;DHT22;9256;52.236;5.712;2023-04-01T12:06:55;11.00;99.90
18260;DHT22;9256;52.236;5.712;2023-04-01T12:09:34;10.90;99.90
18260;DHT22;9256;52.236;5.712;2023-04-01T12:12:14;10.90;99.90
18260;DHT22;9256;52.236;5.712;2023-04-01T12:14:53;10.90;99.90
18260;DHT22;9256;52.236;5.712;2023-04-01T12:17:30;10.90;99.90
18260;DHT22;9256;52.236;5.712;2023-04-01T12:20:13;10.90;99.90
18260;DHT22;9256;52.236;5.712;2023-04-01T12:22:47;11.00;99.90
18260;DHT22;9256;52.236;5.712;2023-04-01T12:25:33;11.10;99.90
18260;DHT22;9256;52.236;5.712;2023-04-01T12:28:10;11.20;99.90
18260;DHT22;9256;52.236;5.712;2023-04-01T12:30:59;11.30;99.90
18260;DHT22;9256;52.236;5.712;2023-04-01T12:34:13;11.20;99.90
18260;DHT22;9256;52.236;5.712;2023-04-01T12:36:53;11.20;99.90
18260;DHT22;9256;52.236;5.712;2023-04-01T12:39:49;11.20;99.90
18260;DHT22;9256;52.236;5.712;2023-04-01T12:42:35;11.40;99.90
18260;DHT22;9256;52.236;5.712;2023-04-01T12:45:16;11.40;99.90
18260;DHT22;9256;52.236;5.712;2023-04-01T12:48:17;11.40;99.90
18260;DHT22;9256;52.236;5.712;2023-04-01T12:51:31;11.30;99.90
18260;DHT22;9256;52.236;5.712;2023-04-01T12:57:33;11.10;99.90
18260;DHT22;9256;52.236;5.712;2023-04-01T13:00:18;11.10;99.90
18260;DHT22;9256;52.236;5.712;2023-04-01T13:03:03;11.00;99.90
18260;DHT22;9256;52.236;5.712;2023-04-01T13:06:11;11.00;99.90
18260;DHT22;9256;52.236;5.712;2023-04-01T13:08:47;11.00;99.90
18260;DHT22;9256;52.236;5.712;2023-04-01T13:11:24;11.00;99.90
18260;DHT22;9256;52.236;5.712;2023-04-01T13:16:54;10.90;99.90
18260;DHT22;9256;52.236;5.712;2023-04-01T13:19:27;10.90;99.90
18260;DHT22;9256;52.236;5.712;2023-04-01T13:22:00;10.90;99.90
18260;DHT22;9256;52.236;5.712;2023-04-01T13:24:44;10.90;99.90
18260;DHT22;9256;52.236;5.712;2023-04-01T13:27:18;10.90;99.90
18260;DHT22;9256;52.236;5.712;2023-04-01T13:30:02;10.90;99.90
18260;DHT22;9256;52.236;5.712;2023-04-01T13:32:36;11.00;99.90
18260;DHT22;9256;52.236;5.712;2023-04-01T13:35:20;11.00;99.90
18260;DHT22;9256;52.236;5.712;2023-04-01T13:37:58;11.00;99.90
18260;DHT22;9256;52.236;5.712;2023-04-01T13:40:40;11.00;99.90
18260;DHT22;9256;52.236;5.712;2023-04-01T13:43:15;10.90;99.90
18260;DHT22;9256;52.236;5.712;2023-04-01T13:45:56;11.10;99.90
18260;DHT22;9256;52.236;5.712;2023-04-01T13:48:58;11.00;99.90
18260;DHT22;9256;52.236;5.712;2023-04-01T13:54:46;10.80;99.90
18260;DHT22;9256;52.236;5.712;2023-04-01T13:57:29;10.70;99.90
18260;DHT22;9256;52.236;5.712;2023-04-01T14:00:18;10.60;99.90
18260;DHT22;9256;52.236;5.712;2023-04-01T14:03:10;10.60;99.90
18260;DHT22;9256;52.236;5.712;2023-04-01T14:05:50;10.60;99.90
18260;DHT22;9256;52.236;5.712;2023-04-01T14:08:33;10.60;99.90
18260;DHT22;9256;52.236;5.712;2023-04-01T14:11:12;10.60;99.90
18260;DHT22;9256;52.236;5.712;2023-04-01T14:13:47;10.60;99.90
18260;DHT22;9256;52.236;5.712;2023-04-01T14:19:25;10.60;99.90
18260;DHT22;9256;52.236;5.712;2023-04-01T14:21:59;10.60;99.90
18260;DHT22;9256;52.236;5.712;2023-04-01T14:24:51;10.70;99.90
18260;DHT22;9256;52.236;5.712;2023-04-01T14:27:42;10.70;99.90
18260;DHT22;9256;52.236;5.712;2023-04-01T14:30:39;10.70;99.90
18260;DHT22;9256;52.236;5.712;2023-04-01T14:33:26;10.80;99.90
18260;DHT22;9256;52.236;5.712;2023-04-01T14:36:14;10.80;99.90
18260;DHT22;9256;52.236;5.712;2023-04-01T14:38:53;10.90;99.90
18260;DHT22;9256;52.236;5.712;2023-04-01T14:41:32;10.80;99.90
18260;DHT22;9256;52.236;5.712;2023-04-01T14:44:18;10.80;99.90
18260;DHT22;9256;52.236;5.712;2023-04-01T14:50:05;10.90;99.90
18260;DHT22;9256;52.236;5.712;2023-04-01T14:52:36;10.90;99.90
18260;DHT22;9256;52.236;5.712;2023-04-01T14:55:19;10.80;99.90
18260;DHT22;9256;52.236;5.712;2023-04-01T14:57:58;10.80;99.90
18260;DHT22;9256;52.236;5.712;2023-04-01T15:00:26;10.80;99.90
18260;DHT22;9256;52.236;5.712;2023-04-01T15:02:58;10.60;99.90
18260;DHT22;9256;52.236;5.712;2023-04-01T15:05:39;10.60;99.90
18260;DHT22;9256;52.236;5.712;2023-04-01T15:08:20;10.40;99.90
18260;DHT22;9256;52.236;5.712;2023-04-01T15:14:05;10.30;99.90
18260;DHT22;9256;52.236;5.712;2023-04-01T15:16:39;10.30;99.90
18260;DHT22;9256;52.236;5.712;2023-04-01T15:19:15;10.40;99.90
18260;DHT22;9256;52.236;5.712;2023-04-01T15:24:45;10.40;99.90
18260;DHT22;9256;52.236;5.712;2023-04-01T15:27:21;10.30;99.90
18260;DHT22;9256;52.236;5.712;2023-04-01T15:30:23;10.40;99.90
18260;DHT22;9256;52.236;5.712;2023-04-01T15:36:01;10.30;99.90
18260;DHT22;9256;52.236;5.712;2023-04-01T15:38:36;10.30;99.90
18260;DHT22;9256;52.236;5.712;2023-04-01T15:41:13;10.10;99.90
18260;DHT22;9256;52.236;5.712;2023-04-01T15:43:42;10.20;99.90
18260;DHT22;9256;52.236;5.712;2023-04-01T15:46:25;10.20;99.90
18260;DHT22;9256;52.236;5.712;2023-04-01T15:49:15;10.10;99.90
18260;DHT22;9256;52.236;5.712;2023-04-01T15:51:58;10.00;99.90
18260;DHT22;9256;52.236;5.712;2023-04-01T15:54:38;10.00;99.90
18260;DHT22;9256;52.236;5.712;2023-04-01T15:57:20;9.90;99.90
18260;DHT22;9256;52.236;5.712;2023-04-01T16:00:11;9.90;99.90
18260;DHT22;9256;52.236;5.712;2023-04-01T16:02:46;9.90;99.90
18260;DHT22;9256;52.236;5.712;2023-04-01T16:05:37;9.90;99.90
18260;DHT22;9256;52.236;5.712;2023-04-01T16:08:21;9.90;99.90
18260;DHT22;9256;52.236;5.712;2023-04-01T16:11:04;9.70;99.90
18260;DHT22;9256;52.236;5.712;2023-04-01T16:13:46;9.80;99.90
18260;DHT22;9256;52.236;5.712;2023-04-01T16:16:24;9.70;99.90
18260;DHT22;9256;52.236;5.712;2023-04-01T16:19:14;9.70;99.90
18260;DHT22;9256;52.236;5.712;2023-04-01T16:21:49;9.70;99.90
18260;DHT22;9256;52.236;5.712;2023-04-01T16:24:22;9.70;99.90
18260;DHT22;9256;52.236;5.712;2023-04-01T16:26:54;9.70;99.90
18260;DHT22;9256;52.236;5.712;2023-04-01T16:29:30;9.60;99.90
18260;DHT22;9256;52.236;5.712;2023-04-01T16:32:14;9.60;99.90
18260;DHT22;9256;52.236;5.712;2023-04-01T16:34:45;9.60;99.90
18260;DHT22;9256;52.236;5.712;2023-04-01T16:37:19;9.50;99.90
18260;DHT22;9256;52.236;5.712;2023-04-01T16:39:52;9.50;99.90
18260;DHT22;9256;52.236;5.712;2023-04-01T16:42:28;9.40;99.90
18260;DHT22;9256;52.236;5.712;2023-04-01T16:45:06;9.30;99.90
18260;DHT22;9256;52.236;5.712;2023-04-01T16:47:47;9.40;99.90
18260;DHT22;9256;52.236;5.712;2023-04-01T16:50:20;9.40;99.90
18260;DHT22;9256;52.236;5.712;2023-04-01T16:52:58;9.30;99.90
18260;DHT22;9256;52.236;5.712;2023-04-01T16:55:35;9.30;99.90
18260;DHT22;9256;52.236;5.712;2023-04-01T16:58:10;9.30;99.90
18260;DHT22;9256;52.236;5.712;2023-04-01T17:00:48;9.20;99.90
18260;DHT22;9256;52.236;5.712;2023-04-01T17:03:20;9.20;99.90
18260;DHT22;9256;52.236;5.712;2023-04-01T17:05:55;9.30;99.90
18260;DHT22;9256;52.236;5.712;2023-04-01T17:08:34;9.20;99.90
18260;DHT22;9256;52.236;5.712;2023-04-01T17:11:09;9.20;99.90
18260;DHT22;9256;52.236;5.712;2023-04-01T17:13:46;9.10;99.90
18260;DHT22;9256;52.236;5.712;2023-04-01T17:16:44;9.10;99.90
18260;DHT22;9256;52.236;5.712;2023-04-01T17:19:23;9.10;99.90
18260;DHT22;9256;52.236;5.712;2023-04-01T17:22:00;9.00;99.90
18260;DHT22;9256;52.236;5.712;2023-04-01T17:24:38;9.10;99.90
18260;DHT22;9256;52.236;5.712;2023-04-01T17:27:21;9.00;99.90
18260;DHT22;9256;52.236;5.712;2023-04-01T17:33:10;9.00;99.90
18260;DHT22;9256;52.236;5.712;2023-04-01T17:35:43;8.90;99.90
18260;DHT22;9256;52.236;5.712;2023-04-01T17:38:21;8.90;99.90
18260;DHT22;9256;52.236;5.712;2023-04-01T17:41:00;8.90;99.90
18260;DHT22;9256;52.236;5.712;2023-04-01T17:43:37;8.90;99.90
18260;DHT22;9256;52.236;5.712;2023-04-01T17:46:20;8.80;99.90
18260;DHT22;9256;52.236;5.712;2023-04-01T17:49:00;8.80;99.90
18260;DHT22;9256;52.236;5.712;2023-04-01T17:51:33;8.80;99.90
18260;DHT22;9256;52.236;5.712;2023-04-01T17:54:11;8.80;99.90
18260;DHT22;9256;52.236;5.712;2023-04-01T17:56:53;8.80;99.90
18260;DHT22;9256;52.236;5.712;2023-04-01T17:59:26;8.80;99.90
18260;DHT22;9256;52.236;5.712;2023-04-01T18:02:07;8.80;99.90
18260;DHT22;9256;52.236;5.712;2023-04-01T18:05:17;8.80;99.90
18260;DHT22;9256;52.236;5.712;2023-04-01T18:08:07;8.80;99.90
18260;DHT22;9256;52.236;5.712;2023-04-01T18:10:43;8.80;99.90
18260;DHT22;9256;52.236;5.712;2023-04-01T18:13:29;8.70;99.90
18260;DHT22;9256;52.236;5.712;2023-04-01T18:16:11;8.60;99.90
18260;DHT22;9256;52.236;5.712;2023-04-01T18:18:50;8.60;99.90
18260;DHT22;9256;52.236;5.712;2023-04-01T18:21:27;8.60;99.90
18260;DHT22;9256;52.236;5.712;2023-04-01T18:23:58;8.60;99.90
18260;DHT22;9256;52.236;5.712;2023-04-01T18:26:29;8.50;99.90
18260;DHT22;9256;52.236;5.712;2023-04-01T18:28:59;8.60;99.90
18260;DHT22;9256;52.236;5.712;2023-04-01T18:31:35;8.50;99.90
18260;DHT22;9256;52.236;5.712;2023-04-01T18:34:13;8.60;99.90
18260;DHT22;9256;52.236;5.712;2023-04-01T18:36:46;8.60;99.90